Time;durP1;ratioP1;P1;durP2;ratioP2;P2;SDS_P1;SDS_P2;PMS_P1;PMS_P2;Temp;Humidity;BMP_temperature;BMP_pressure;BME280_temperature;BME280_humidity;BME280_pressure;Samples;Min_cycle;Max_cycle;Signal;HPM_P1;HPM_P2
2023/05/09 00:00:01;;;;;;;1.63;1.40;;;18.80;32.10;;;;;;6246871;23;20225;-81
2023/05/09 00:02:28;;;;;;;2.85;1.40;;;18.80;32.10;;;;;;6246854;23;20187;-81
2023/05/09 00:04:55;;;;;;;1.83;1.50;;;18.80;32.10;;;;;;6246837;23;20133;-80
2023/05/09 00:07:21;;;;;;;3.35;1.50;;;18.70;32.10;;;;;;6220614;23;20130;-81
2023/05/09 00:09:47;;;;;;;3.03;1.20;;;18.70;32.10;;;;;;6246804;23;20195;-81
2023/05/09 00:12:12;;;;;;;1.58;1.20;;;18.70;32.10;;;;;;6219671;23;20200;-81
2023/05/09 00:14:39;;;;;;;3.28;1.27;;;18.70;32.10;;;;;;6246576;23;20219;-81
2023/05/09 00:17:06;;;;;;;1.67;1.40;;;18.80;32.20;;;;;;6220249;23;20187;-81
2023/05/09 00:19:32;;;;;;;1.38;1.20;;;18.70;32.20;;;;;;6195278;23;20153;-81
2023/05/09 00:21:58;;;;;;;1.60;1.50;;;18.70;32.20;;;;;;6195125;23;20175;-81
2023/05/09 00:24:24;;;;;;;1.48;1.38;;;18.70;32.90;;;;;;6194900;23;20568;-81
2023/05/09 00:26:49;;;;;;;1.63;1.52;;;18.70;32.20;;;;;;6219911;23;20208;-82
2023/05/09 00:29:15;;;;;;;1.50;1.40;;;18.70;32.20;;;;;;6246637;23;20140;-81
2023/05/09 00:31:40;;;;;;;1.73;1.55;;;18.70;32.30;;;;;;6219802;23;20562;-81
2023/05/09 00:34:06;;;;;;;1.42;1.33;;;18.70;32.30;;;;;;6194815;23;20599;-81
2023/05/09 00:36:32;;;;;;;1.60;1.30;;;18.70;32.30;;;;;;6219690;23;20573;-81
2023/05/09 00:38:57;;;;;;;1.80;1.45;;;18.70;32.30;;;;;;6246549;23;20137;-81
2023/05/09 00:41:23;;;;;;;2.10;1.45;;;18.70;32.30;;;;;;6219722;23;20157;-81
2023/05/09 00:43:49;;;;;;;2.58;1.50;;;18.70;32.30;;;;;;6246461;23;20134;-82
2023/05/09 00:46:14;;;;;;;1.55;1.30;;;18.70;32.30;;;;;;6219849;23;20517;-81
2023/05/09 00:48:40;;;;;;;1.45;1.35;;;18.70;32.30;;;;;;6246486;23;20145;-82
2023/05/09 00:51:06;;;;;;;1.55;1.40;;;18.70;32.30;;;;;;6194805;23;20624;-81
2023/05/09 00:53:31;;;;;;;2.00;1.70;;;18.60;32.30;;;;;;6246442;23;20564;-81
2023/05/09 00:55:57;;;;;;;1.27;1.17;;;18.60;32.40;;;;;;6219443;23;20576;-81
2023/05/09 00:58:23;;;;;;;1.75;1.40;;;18.60;32.40;;;;;;6219542;23;20150;-81
2023/05/09 01:00:49;;;;;;;2.80;1.50;;;18.60;32.40;;;;;;6219731;23;20458;-80
2023/05/09 01:03:14;;;;;;;1.58;1.48;;;18.60;32.40;;;;;;6170659;23;20152;-81
2023/05/09 01:05:56;;;;;;;1.83;1.40;;;18.60;32.40;;;;;;6246319;23;20564;-81
2023/05/09 01:08:51;;;;;;;2.92;1.55;;;18.60;32.40;;;;;;6219920;23;20134;-81
2023/05/09 01:11:25;;;;;;;2.20;1.60;;;18.60;32.40;;;;;;6219850;23;20172;-81
2023/05/09 01:14:29;;;;;;;1.50;1.40;;;18.60;32.40;;;;;;6219408;23;20165;-81
2023/05/09 01:17:00;;;;;;;2.38;1.40;;;18.60;32.50;;;;;;6194344;23;20180;-81
2023/05/09 01:19:51;;;;;;;1.67;1.50;;;18.60;32.50;;;;;;6195043;23;20149;-81
2023/05/09 01:22:16;;;;;;;2.40;1.48;;;18.60;32.60;;;;;;6199629;23;20560;-81
2023/05/09 01:25:06;;;;;;;2.13;1.65;;;18.70;32.60;;;;;;6194496;23;20209;-81
2023/05/09 01:28:11;;;;;;;1.98;1.50;;;18.60;32.60;;;;;;6246122;23;20125;-82
2023/05/09 01:30:37;;;;;;;2.00;1.73;;;18.60;32.60;;;;;;6219161;23;20268;-82
2023/05/09 01:33:05;;;;;;;1.67;1.40;;;18.60;32.60;;;;;;6170213;23;20243;-81
2023/05/09 01:35:31;;;;;;;2.15;1.67;;;18.60;32.60;;;;;;6169778;23;20483;-81
2023/05/09 01:37:56;;;;;;;2.75;1.73;;;18.50;32.50;;;;;;6169558;23;20145;-81
2023/05/09 01:40:22;;;;;;;2.25;1.58;;;18.60;32.60;;;;;;6169934;23;20181;-80
2023/05/09 01:43:00;;;;;;;3.80;1.90;;;18.50;32.60;;;;;;6219528;23;20512;-81
2023/05/09 01:45:26;;;;;;;1.42;1.33;;;18.50;32.60;;;;;;6196757;23;20234;-82
2023/05/09 01:47:52;;;;;;;2.00;1.50;;;18.50;32.60;;;;;;6169921;23;20180;-81
2023/05/09 01:50:18;;;;;;;2.65;1.38;;;18.50;32.60;;;;;;6195185;23;20184;-82
2023/05/09 01:52:43;;;;;;;2.65;1.40;;;18.60;32.60;;;;;;6194769;23;20157;-81
2023/05/09 01:55:09;;;;;;;1.85;1.50;;;18.60;32.80;;;;;;6246322;23;20141;-80
2023/05/09 01:57:35;;;;;;;1.85;1.20;;;18.50;32.60;;;;;;6246118;23;20193;-81
2023/05/09 02:00:00;;;;;;;2.90;1.55;;;18.50;32.70;;;;;;6219617;23;20141;-81
2023/05/09 02:02:26;;;;;;;2.13;1.35;;;18.50;32.70;;;;;;6219623;23;20146;-81
2023/05/09 02:04:53;;;;;;;1.77;1.65;;;18.50;32.70;;;;;;6194733;23;20134;-81
2023/05/09 02:07:19;;;;;;;1.90;1.70;;;18.50;33.50;;;;;;6169770;23;20221;-81
2023/05/09 02:09:45;;;;;;;2.25;1.55;;;18.50;32.80;;;;;;6194025;23;20604;-81
2023/05/09 02:12:11;;;;;;;3.35;1.75;;;18.50;32.80;;;;;;6219094;23;20189;-81
2023/05/09 02:14:36;;;;;;;2.30;1.60;;;18.50;32.80;;;;;;6219305;23;20141;-81
2023/05/09 02:17:05;;;;;;;2.38;1.55;;;18.50;32.80;;;;;;6246232;23;20204;-81
2023/05/09 02:19:34;;;;;;;2.00;1.20;;;18.50;32.80;;;;;;6219905;23;20126;-81
2023/05/09 02:22:00;;;;;;;1.70;1.60;;;18.50;32.90;;;;;;6194087;23;20146;-81
2023/05/09 02:24:25;;;;;;;1.63;1.50;;;18.50;32.90;;;;;;6194416;23;20481;-81
2023/05/09 02:26:51;;;;;;;2.33;1.40;;;18.50;32.90;;;;;;6245802;23;20137;-81
2023/05/09 02:29:17;;;;;;;1.40;1.30;;;18.50;32.90;;;;;;6246309;23;20134;-81
2023/05/09 02:31:42;;;;;;;1.80;1.55;;;18.50;32.90;;;;;;6193773;23;20550;-81
2023/05/09 02:34:08;;;;;;;1.90;1.40;;;18.40;32.80;;;;;;6219187;23;20174;-81
2023/05/09 02:36:34;;;;;;;1.58;1.48;;;18.50;32.90;;;;;;6219299;23;20637;-81
2023/05/09 02:39:00;;;;;;;2.90;1.60;;;18.50;32.90;;;;;;6220671;23;20134;-81
2023/05/09 02:41:27;;;;;;;1.75;1.50;;;18.40;32.80;;;;;;6171236;23;20176;-81
2023/05/09 02:43:53;;;;;;;2.75;1.80;;;18.50;33.00;;;;;;6221385;23;20172;-81
2023/05/09 02:46:19;;;;;;;2.95;1.58;;;18.40;32.90;;;;;;6171121;23;20146;-81
2023/05/09 02:48:44;;;;;;;1.77;1.50;;;18.50;33.00;;;;;;6221008;23;20133;-80
2023/05/09 02:51:10;;;;;;;2.10;1.50;;;18.50;33.00;;;;;;6247804;23;20169;-81
2023/05/09 02:53:36;;;;;;;4.00;1.88;;;18.50;33.00;;;;;;6220950;23;20133;-82
2023/05/09 02:56:02;;;;;;;1.50;1.40;;;18.50;33.00;;;;;;6247461;23;20125;-82
2023/05/09 02:58:28;;;;;;;2.25;1.40;;;18.40;33.00;;;;;;6247520;23;20161;-81
2023/05/09 03:00:54;;;;;;;2.60;1.60;;;18.40;33.00;;;;;;6195676;23;20153;-81
2023/05/09 03:03:20;;;;;;;1.92;1.48;;;18.50;33.10;;;;;;6195520;23;20141;-81
2023/05/09 03:05:46;;;;;;;1.65;1.48;;;18.40;33.10;;;;;;6171333;23;20142;-81
2023/05/09 03:08:12;;;;;;;2.47;1.40;;;18.50;33.10;;;;;;6221129;23;20460;-81
2023/05/09 03:10:37;;;;;;;1.67;1.50;;;18.40;33.10;;;;;;6220535;23;20534;-80
2023/05/09 03:13:03;;;;;;;1.35;1.25;;;18.50;33.10;;;;;;6195393;23;20531;-81
2023/05/09 03:15:29;;;;;;;1.50;1.40;;;18.40;33.10;;;;;;6221090;23;20137;-81
2023/05/09 03:17:55;;;;;;;1.58;1.48;;;18.50;33.20;;;;;;6220691;23;20184;-81
2023/05/09 03:20:20;;;;;;;1.45;1.35;;;18.40;33.10;;;;;;6247320;23;20137;-81
2023/05/09 03:22:47;;;;;;;1.52;1.42;;;18.50;33.20;;;;;;6220612;23;20487;-82
2023/05/09 03:25:13;;;;;;;2.58;1.52;;;18.50;33.20;;;;;;6171060;23;20146;-81
2023/05/09 03:27:38;;;;;;;1.77;1.40;;;18.50;33.20;;;;;;6171497;23;20585;-80
2023/05/09 03:30:05;;;;;;;1.52;1.42;;;18.40;33.20;;;;;;6195698;23;20215;-81
2023/05/09 03:32:31;;;;;;;1.85;1.50;;;18.40;33.20;;;;;;6195914;23;20164;-80
2023/05/09 03:34:57;;;;;;;1.77;1.50;;;18.50;33.30;;;;;;6220519;23;20130;-80
2023/05/09 03:37:22;;;;;;;1.30;1.20;;;18.40;33.20;;;;;;6220275;23;20445;-81
2023/05/09 03:39:48;;;;;;;1.70;1.60;;;18.50;33.30;;;;;;6195328;23;20599;-81
2023/05/09 03:42:14;;;;;;;2.95;1.23;;;18.50;33.30;;;;;;6195449;23;20137;-80
2023/05/09 03:44:40;;;;;;;1.40;1.30;;;18.50;33.20;;;;;;6195718;23;20494;-81
2023/05/09 03:47:05;;;;;;;2.17;1.50;;;18.50;33.30;;;;;;6195467;23;20134;-80
2023/05/09 03:49:31;;;;;;;1.45;1.30;;;18.40;33.20;;;;;;6194637;23;20556;-81
2023/05/09 03:51:57;;;;;;;1.40;1.30;;;18.50;33.30;;;;;;6247079;23;20622;-81
2023/05/09 03:54:23;;;;;;;1.60;1.50;;;18.40;33.20;;;;;;6246973;23;20149;-81
2023/05/09 03:56:48;;;;;;;1.38;1.20;;;18.40;33.20;;;;;;6220032;23;20172;-80
2023/05/09 03:59:14;;;;;;;2.97;1.42;;;18.40;33.20;;;;;;6247183;23;20130;-80
2023/05/09 04:01:40;;;;;;;2.28;1.60;;;18.50;33.30;;;;;;6195076;23;20150;-80
2023/05/09 04:04:06;;;;;;;1.80;1.52;;;18.50;33.30;;;;;;6220205;23;20611;-80
2023/05/09 04:06:32;;;;;;;1.58;1.48;;;18.50;33.20;;;;;;6220007;23;20152;-80
2023/05/09 04:08:57;;;;;;;1.80;1.55;;;18.50;33.30;;;;;;6220089;23;20157;-80
2023/05/09 04:11:23;;;;;;;1.25;1.15;;;18.40;33.20;;;;;;6219706;23;20628;-81
2023/05/09 04:13:49;;;;;;;2.28;1.60;;;18.50;33.30;;;;;;6219951;23;20557;-81
2023/05/09 04:16:14;;;;;;;1.73;1.42;;;18.50;33.30;;;;;;6246718;23;20129;-80
2023/05/09 04:18:41;;;;;;;1.75;1.38;;;18.50;33.20;;;;;;6170693;23;20149;-80
2023/05/09 04:21:07;;;;;;;2.35;1.50;;;18.50;33.30;;;;;;6220098;23;20220;-80
2023/05/09 04:23:32;;;;;;;1.58;1.40;;;18.50;33.30;;;;;;6195082;23;20180;-80
2023/05/09 04:25:58;;;;;;;1.98;1.38;;;18.50;33.20;;;;;;6194863;23;20138;-80
2023/05/09 04:28:24;;;;;;;2.38;1.48;;;18.50;33.30;;;;;;6220040;23;20203;-80
2023/05/09 04:30:50;;;;;;;2.00;1.55;;;18.50;33.20;;;;;;6220045;23;20536;-80
2023/05/09 04:33:16;;;;;;;1.90;1.48;;;18.60;33.20;;;;;;6246581;23;20141;-80
2023/05/09 04:35:41;;;;;;;1.90;1.60;;;18.60;33.20;;;;;;6170492;23;20169;-80
2023/05/09 04:38:07;;;;;;;3.22;1.67;;;18.60;33.20;;;;;;6169997;23;20145;-80
2023/05/09 04:40:33;;;;;;;1.60;1.50;;;18.60;33.20;;;;;;6219760;23;20475;-80
2023/05/09 04:42:58;;;;;;;1.45;1.30;;;18.60;33.20;;;;;;6219939;23;20620;-80
2023/05/09 04:45:24;;;;;;;1.70;1.45;;;18.60;33.20;;;;;;6194733;23;20140;-80
2023/05/09 04:47:50;;;;;;;1.85;1.38;;;18.60;33.20;;;;;;6194737;23;20134;-81
2023/05/09 04:50:16;;;;;;;2.13;1.58;;;18.60;33.20;;;;;;6169739;23;20621;-81
2023/05/09 04:52:42;;;;;;;2.17;1.65;;;18.60;33.20;;;;;;6219770;23;20136;-81
2023/05/09 04:55:08;;;;;;;1.60;1.50;;;18.60;33.30;;;;;;6195350;23;20228;-80
2023/05/09 04:57:33;;;;;;;1.50;1.40;;;18.60;33.20;;;;;;6246266;23;20160;-81
2023/05/09 04:59:59;;;;;;;1.80;1.40;;;18.60;33.10;;;;;;6169930;23;20150;-81
2023/05/09 05:02:25;;;;;;;2.22;1.33;;;18.70;33.20;;;;;;6169703;23;20224;-80
2023/05/09 05:04:51;;;;;;;1.92;1.30;;;18.70;33.10;;;;;;6246282;23;20137;-81
2023/05/09 05:07:16;;;;;;;1.52;1.40;;;18.70;33.20;;;;;;6246380;23;20129;-80
2023/05/09 05:09:42;;;;;;;2.22;1.45;;;18.70;33.10;;;;;;6246179;23;20156;-80
2023/05/09 05:12:07;;;;;;;2.92;1.55;;;18.70;33.20;;;;;;6245798;23;20524;-81
2023/05/09 05:14:33;;;;;;;1.63;1.45;;;18.70;33.10;;;;;;6194845;23;20462;-80
2023/05/09 05:16:59;;;;;;;1.50;1.40;;;18.60;33.00;;;;;;6219839;23;20216;-80
2023/05/09 05:19:25;;;;;;;2.30;1.38;;;18.70;33.10;;;;;;6246212;23;20134;-81
2023/05/09 05:21:50;;;;;;;2.10;1.45;;;18.80;33.10;;;;;;6219647;23;20225;-80
2023/05/09 05:24:16;;;;;;;1.70;1.40;;;18.70;33.00;;;;;;6246145;23;20556;-81
2023/05/09 05:26:42;;;;;;;1.52;1.42;;;18.70;33.10;;;;;;6246123;23;20204;-81
2023/05/09 05:29:07;;;;;;;1.73;1.45;;;18.70;33.10;;;;;;6195081;23;20630;-81
2023/05/09 05:31:33;;;;;;;1.50;1.40;;;18.70;33.10;;;;;;6245956;23;20240;-81
2023/05/09 05:33:59;;;;;;;1.52;1.38;;;18.70;33.10;;;;;;6194987;23;20227;-81
2023/05/09 05:36:24;;;;;;;1.90;1.73;;;18.70;33.20;;;;;;6219473;23;20427;-81
2023/05/09 05:38:50;;;;;;;1.75;1.40;;;18.70;33.20;;;;;;6195292;23;20145;-81
2023/05/09 05:41:16;;;;;;;1.70;1.50;;;18.70;33.20;;;;;;6194465;23;20138;-81
2023/05/09 05:43:42;;;;;;;1.88;1.73;;;18.70;33.30;;;;;;6194704;23;20563;-81
2023/05/09 05:46:07;;;;;;;1.42;1.33;;;18.80;33.20;;;;;;6194498;23;20561;-81
2023/05/09 05:48:33;;;;;;;2.17;1.60;;;18.80;33.10;;;;;;6169863;23;20150;-81
2023/05/09 05:50:59;;;;;;;2.85;1.50;;;18.70;33.20;;;;;;6194286;23;20177;-81
2023/05/09 05:53:24;;;;;;;1.88;1.50;;;18.80;33.30;;;;;;6194950;23;20148;-81
2023/05/09 05:55:50;;;;;;;1.35;1.25;;;18.80;33.20;;;;;;6219316;23;20522;-81
2023/05/09 05:58:16;;;;;;;1.98;1.50;;;18.80;33.20;;;;;;6194250;23;20205;-81
2023/05/09 06:00:41;;;;;;;1.58;1.38;;;18.80;33.20;;;;;;6219376;23;20188;-81
2023/05/09 06:03:12;;;;;;;1.40;1.30;;;18.80;33.20;;;;;;6194496;23;20587;-81
2023/05/09 06:05:41;;;;;;;1.65;1.42;;;18.80;33.10;;;;;;6196614;23;20130;-81
2023/05/09 06:08:06;;;;;;;1.92;1.60;;;18.80;33.20;;;;;;6219244;23;20476;-81
2023/05/09 06:10:32;;;;;;;1.83;1.33;;;18.80;33.20;;;;;;6219384;23;20166;-82
2023/05/09 06:12:58;;;;;;;2.38;1.60;;;18.70;33.20;;;;;;6195094;23;20569;-81
2023/05/09 06:15:24;;;;;;;3.58;1.42;;;18.80;33.20;;;;;;6196192;23;20133;-81
2023/05/09 06:17:49;;;;;;;1.60;1.50;;;18.80;33.20;;;;;;6247997;23;20169;-80
2023/05/09 06:20:15;;;;;;;2.50;1.30;;;18.90;33.20;;;;;;6247982;23;20474;-81
2023/05/09 06:22:41;;;;;;;1.50;1.40;;;18.90;33.20;;;;;;6247826;23;20134;-80
2023/05/09 06:25:07;;;;;;;2.03;1.60;;;18.90;33.10;;;;;;6247924;23;20220;-80
2023/05/09 06:27:32;;;;;;;2.20;1.50;;;18.90;33.10;;;;;;6221147;23;20148;-80
2023/05/09 06:29:58;;;;;;;1.83;1.50;;;18.90;33.20;;;;;;6170997;23;20162;-80
2023/05/09 06:32:24;;;;;;;2.22;1.50;;;18.90;33.20;;;;;;6221160;23;20511;-81
2023/05/09 06:34:50;;;;;;;2.05;1.60;;;18.90;33.20;;;;;;6247654;23;20451;-81
2023/05/09 06:37:15;;;;;;;2.08;1.42;;;18.90;33.20;;;;;;6221317;23;20176;-81
2023/05/09 06:39:41;;;;;;;2.03;1.60;;;18.90;33.20;;;;;;6196252;23;20192;-81
2023/05/09 06:42:07;;;;;;;2.33;1.50;;;18.80;33.20;;;;;;6196694;23;20138;-81
2023/05/09 06:44:32;;;;;;;1.70;1.60;;;18.80;33.30;;;;;;6220952;23;20134;-81
2023/05/09 06:46:58;;;;;;;1.85;1.40;;;18.70;33.60;;;;;;6195277;23;20521;-81
2023/05/09 06:49:24;;;;;;;1.50;1.40;;;18.80;33.60;;;;;;6170535;23;20450;-81
2023/05/09 06:51:49;;;;;;;3.83;1.70;;;18.80;33.60;;;;;;6220863;23;20180;-81
2023/05/09 06:54:16;;;;;;;2.15;1.67;;;18.80;33.80;;;;;;6195777;23;20133;-81
2023/05/09 06:56:41;;;;;;;1.75;1.40;;;18.80;33.90;;;;;;6196234;23;20129;-81
2023/05/09 06:59:07;;;;;;;1.83;1.30;;;18.70;33.90;;;;;;6170955;23;20199;-80
2023/05/09 07:01:33;;;;;;;2.40;1.58;;;18.80;33.90;;;;;;6221032;23;20137;-81
2023/05/09 07:03:58;;;;;;;2.78;1.30;;;18.80;34.00;;;;;;6220650;23;20141;-80
2023/05/09 07:06:24;;;;;;;1.88;1.45;;;18.80;33.90;;;;;;6195582;23;20567;-81
2023/05/09 07:08:50;;;;;;;1.92;1.48;;;18.80;34.10;;;;;;6220582;23;20564;-81
2023/05/09 07:11:15;;;;;;;1.60;1.42;;;18.80;34.00;;;;;;6220603;23;20207;-81
2023/05/09 07:13:41;;;;;;;2.00;1.30;;;18.80;34.10;;;;;;6195162;23;20193;-81
2023/05/09 07:16:07;;;;;;;1.52;1.42;;;18.80;34.30;;;;;;6220631;23;20466;-81
2023/05/09 07:18:32;;;;;;;1.85;1.48;;;18.80;34.10;;;;;;6247209;23;20157;-80
2023/05/09 07:20:58;;;;;;;3.10;1.38;;;18.80;34.10;;;;;;6220754;23;20134;-80
2023/05/09 07:23:25;;;;;;;1.35;1.25;;;18.80;34.20;;;;;;6219853;23;20157;-80
2023/05/09 07:25:56;;;;;;;1.48;1.38;;;18.80;34.40;;;;;;6220656;23;20164;-80
2023/05/09 07:28:21;;;;;;;2.83;1.30;;;18.80;34.40;;;;;;6221958;23;20130;-80
2023/05/09 07:30:47;;;;;;;1.48;1.38;;;18.90;34.50;;;;;;6221527;23;20627;-79
2023/05/09 07:33:13;;;;;;;2.20;1.40;;;18.80;34.40;;;;;;6196318;23;20572;-80
2023/05/09 07:35:39;;;;;;;1.90;1.60;;;18.80;34.60;;;;;;6171670;23;20528;-80
2023/05/09 07:38:05;;;;;;;1.50;1.40;;;18.80;34.50;;;;;;6174275;23;20260;-79
2023/05/09 07:40:52;;;;;;;1.40;1.30;;;18.80;34.60;;;;;;6197024;23;20134;-80
2023/05/09 07:43:30;;;;;;;3.08;1.50;;;18.80;34.80;;;;;;6248050;23;20133;-80
2023/05/09 07:46:00;;;;;;;1.63;1.27;;;18.80;34.80;;;;;;6210709;23;20201;-80
2023/05/09 07:48:26;;;;;;;1.77;1.40;;;18.80;34.90;;;;;;6172832;23;20141;-80
2023/05/09 07:50:52;;;;;;;1.98;1.55;;;18.80;35.30;;;;;;6221968;23;20169;-80
2023/05/09 07:53:17;;;;;;;1.90;1.50;;;18.80;35.50;;;;;;6196936;23;20141;-80
2023/05/09 07:55:46;;;;;;;2.95;1.50;;;18.80;35.20;;;;;;6196980;23;20204;-81
2023/05/09 07:58:12;;;;;;;1.50;1.40;;;18.70;35.20;;;;;;6198651;23;20217;-80
2023/05/09 08:00:37;;;;;;;1.60;1.50;;;18.80;35.10;;;;;;6196978;23;20141;-80
2023/05/09 08:03:03;;;;;;;1.55;1.45;;;18.90;35.50;;;;;;6249022;23;20435;-81
2023/05/09 08:05:28;;;;;;;2.42;1.17;;;18.90;35.30;;;;;;6221475;23;20416;-79
2023/05/09 08:07:54;;;;;;;1.70;1.60;;;18.90;35.20;;;;;;6171492;23;20571;-80
2023/05/09 08:10:21;;;;;;;1.40;1.30;;;18.80;35.40;;;;;;6196249;23;20185;-79
2023/05/09 08:12:47;;;;;;;1.92;1.50;;;18.80;35.60;;;;;;6198209;23;20513;-80
2023/05/09 08:15:13;;;;;;;1.55;1.45;;;18.80;35.80;;;;;;6196777;23;20228;-80
2023/05/09 08:17:39;;;;;;;1.63;1.45;;;18.90;35.70;;;;;;6171374;23;20217;-80
2023/05/09 08:20:06;;;;;;;1.85;1.30;;;18.90;35.70;;;;;;6221199;23;20480;-80
2023/05/09 08:22:31;;;;;;;1.65;1.52;;;19.00;35.70;;;;;;6171128;23;20149;-80
2023/05/09 08:24:57;;;;;;;2.90;1.58;;;19.00;35.70;;;;;;6171131;23;20153;-80
2023/05/09 08:27:23;;;;;;;3.03;1.52;;;19.10;35.70;;;;;;6222193;23;20130;-80
2023/05/09 08:29:48;;;;;;;2.08;1.63;;;19.10;35.70;;;;;;6222556;23;20561;-80
2023/05/09 08:32:14;;;;;;;1.60;1.50;;;19.00;35.70;;;;;;6172753;23;20599;-80
2023/05/09 08:34:40;;;;;;;3.90;1.60;;;19.00;35.90;;;;;;6195687;23;20231;-80
2023/05/09 08:37:05;;;;;;;1.67;1.45;;;19.10;36.00;;;;;;6196327;23;20201;-80
2023/05/09 08:39:33;;;;;;;1.80;1.70;;;19.10;35.80;;;;;;6170275;23;20565;-79
2023/05/09 08:42:00;;;;;;;3.50;1.60;;;19.10;35.90;;;;;;6172559;23;20184;-80
2023/05/09 08:44:27;;;;;;;2.38;1.45;;;19.00;36.10;;;;;;6195469;23;20208;-80
2023/05/09 08:46:57;;;;;;;1.60;1.30;;;19.10;36.00;;;;;;6247205;23;20161;-79
2023/05/09 08:49:22;;;;;;;1.65;1.50;;;19.10;36.80;;;;;;6221864;23;20134;-80
2023/05/09 08:51:48;;;;;;;1.70;1.60;;;19.10;36.10;;;;;;6221642;23;20271;-79
2023/05/09 08:54:14;;;;;;;2.50;1.30;;;19.00;36.20;;;;;;6222022;23;20603;-80
2023/05/09 08:56:40;;;;;;;2.65;1.63;;;19.10;36.30;;;;;;6197338;23;20225;-81
2023/05/09 08:59:06;;;;;;;1.67;1.40;;;19.10;36.40;;;;;;6248654;23;20134;-80
2023/05/09 09:01:32;;;;;;;2.53;1.30;;;19.10;36.40;;;;;;6221829;23;20479;-80
2023/05/09 09:03:58;;;;;;;1.85;1.58;;;19.10;36.60;;;;;;6221734;23;20291;-80
2023/05/09 09:06:24;;;;;;;3.78;1.50;;;19.10;36.60;;;;;;6219331;23;20172;-80
2023/05/09 09:08:50;;;;;;;2.40;1.35;;;19.10;36.60;;;;;;6220006;23;20126;-79
2023/05/09 09:11:16;;;;;;;1.52;1.30;;;19.10;36.80;;;;;;6219501;23;20538;-80
2023/05/09 09:13:41;;;;;;;2.75;1.70;;;19.10;36.80;;;;;;6245790;23;20523;-80
2023/05/09 09:16:10;;;;;;;2.92;1.50;;;19.10;36.70;;;;;;6219859;23;20157;-81
2023/05/09 09:18:35;;;;;;;1.75;1.58;;;19.20;36.70;;;;;;6194791;23;20149;-80
2023/05/09 09:21:05;;;;;;;3.10;1.45;;;19.20;36.80;;;;;;6219528;23;20137;-80
2023/05/09 09:23:31;;;;;;;2.20;1.60;;;19.10;36.70;;;;;;6246115;23;20472;-80
2023/05/09 09:25:58;;;;;;;1.92;1.75;;;19.20;36.70;;;;;;6169104;23;20157;-80
2023/05/09 09:28:24;;;;;;;2.05;1.60;;;19.30;36.70;;;;;;6170445;23;20159;-80
2023/05/09 09:30:50;;;;;;;2.90;1.60;;;19.30;36.50;;;;;;6170158;23;20212;-81
2023/05/09 09:33:20;;;;;;;3.30;1.70;;;19.30;36.60;;;;;;6169338;23;20540;-80
2023/05/09 09:35:47;;;;;;;2.13;1.80;;;19.30;36.60;;;;;;6194269;23;20604;-80
2023/05/09 09:38:13;;;;;;;3.33;1.70;;;19.30;36.70;;;;;;6194534;23;20565;-80
2023/05/09 09:40:39;;;;;;;2.25;1.40;;;19.30;36.70;;;;;;6193189;23;20188;-80
2023/05/09 09:43:05;;;;;;;1.58;1.48;;;19.30;36.70;;;;;;6246069;23;20136;-80
2023/05/09 09:45:31;;;;;;;2.60;1.75;;;19.30;36.70;;;;;;6194137;23;20145;-79
2023/05/09 09:47:57;;;;;;;2.58;1.60;;;19.40;36.70;;;;;;6195175;23;20205;-80
2023/05/09 09:50:24;;;;;;;2.35;1.50;;;19.30;36.60;;;;;;6223054;23;20537;-80
2023/05/09 09:52:52;;;;;;;2.10;1.58;;;19.30;36.50;;;;;;6222592;23;20130;-80
2023/05/09 09:55:18;;;;;;;2.00;1.70;;;19.30;36.70;;;;;;6196621;23;20141;-80
2023/05/09 09:57:45;;;;;;;1.60;1.50;;;19.30;36.70;;;;;;6171462;23;20173;-80
2023/05/09 10:00:13;;;;;;;2.53;1.48;;;19.30;36.80;;;;;;6161838;23;20150;-80
2023/05/09 10:02:50;;;;;;;1.40;1.30;;;19.40;36.60;;;;;;6185983;23;20185;-81
2023/05/09 10:05:25;;;;;;;1.50;1.40;;;19.40;36.60;;;;;;6185599;23;20151;-80
2023/05/09 10:07:58;;;;;;;1.88;1.40;;;19.40;36.60;;;;;;6185079;23;20141;-80
2023/05/09 10:10:26;;;;;;;1.65;1.55;;;19.40;36.60;;;;;;6160013;23;20189;-80
2023/05/09 10:12:52;;;;;;;1.80;1.60;;;19.40;36.60;;;;;;6184820;23;20277;-80
2023/05/09 10:15:19;;;;;;;2.25;1.50;;;19.30;36.60;;;;;;6159915;23;20155;-80
2023/05/09 10:17:44;;;;;;;2.28;1.70;;;19.30;36.70;;;;;;6185244;23;20131;-82
2023/05/09 10:20:10;;;;;;;1.70;1.60;;;19.30;36.80;;;;;;6186287;23;20150;-82
2023/05/09 10:22:36;;;;;;;2.30;1.60;;;19.20;36.80;;;;;;6161993;23;20237;-80
2023/05/09 10:25:05;;;;;;;1.60;1.50;;;19.30;36.80;;;;;;6102245;23;20152;-80
2023/05/09 10:27:34;;;;;;;1.98;1.58;;;19.30;36.70;;;;;;6127147;23;20175;-79
2023/05/09 10:30:09;;;;;;;2.58;1.52;;;19.30;36.70;;;;;;6104002;23;20160;-80
2023/05/09 10:32:47;;;;;;;1.90;1.65;;;19.30;36.70;;;;;;6132925;23;20139;-80
2023/05/09 10:35:12;;;;;;;1.88;1.40;;;19.30;36.70;;;;;;6131708;23;20147;-80
2023/05/09 10:37:39;;;;;;;2.15;1.45;;;19.30;36.70;;;;;;6156809;23;20146;-81
2023/05/09 10:40:05;;;;;;;3.60;1.60;;;19.30;36.70;;;;;;6132681;23;20151;-80
2023/05/09 10:42:31;;;;;;;1.60;1.35;;;19.40;36.70;;;;;;6156515;23;20139;-80
2023/05/09 10:44:57;;;;;;;1.75;1.65;;;19.40;36.80;;;;;;6130441;23;20225;-80
2023/05/09 10:47:25;;;;;;;1.67;1.50;;;19.30;36.80;;;;;;6130610;23;20147;-80
2023/05/09 10:49:51;;;;;;;2.30;1.65;;;19.20;36.90;;;;;;6130339;23;20469;-80
2023/05/09 10:52:17;;;;;;;2.30;1.70;;;19.30;36.90;;;;;;6108615;23;20151;-80
2023/05/09 10:54:43;;;;;;;2.10;1.50;;;19.30;36.90;;;;;;6130980;23;20230;-80
2023/05/09 10:57:09;;;;;;;1.88;1.67;;;19.30;36.90;;;;;;6218716;23;20180;-80
2023/05/09 10:59:40;;;;;;;3.60;1.65;;;19.30;36.80;;;;;;6195384;23;20149;-80
2023/05/09 11:02:12;;;;;;;2.85;1.60;;;19.40;36.90;;;;;;6221433;23;20446;-80
2023/05/09 11:04:38;;;;;;;1.40;1.30;;;19.50;36.90;;;;;;6221106;23;20503;-80
2023/05/09 11:07:04;;;;;;;2.45;1.95;;;19.40;36.90;;;;;;6195695;23;20463;-80
2023/05/09 11:09:35;;;;;;;2.55;1.70;;;19.50;37.00;;;;;;6196257;23;20244;-79
2023/05/09 11:12:10;;;;;;;3.45;1.70;;;19.30;37.60;;;;;;6196337;23;20189;-79
2023/05/09 11:14:40;;;;;;;2.17;1.70;;;19.40;37.00;;;;;;6220810;23;20125;-79
2023/05/09 11:17:09;;;;;;;5.28;1.63;;;19.30;37.00;;;;;;6170623;23;20141;-80
2023/05/09 11:19:57;;;;;;;4.28;2.10;;;19.40;37.10;;;;;;6247413;23;20137;-80
2023/05/09 11:22:26;;;;;;;2.28;1.60;;;19.30;37.10;;;;;;6204457;23;20133;-80
2023/05/09 11:25:07;;;;;;;3.72;1.52;;;19.30;37.10;;;;;;6196305;23;20212;-80
2023/05/09 11:27:43;;;;;;;1.70;1.60;;;19.30;37.10;;;;;;6196192;23;20133;-80
2023/05/09 11:30:11;;;;;;;2.58;1.70;;;19.30;37.20;;;;;;6195944;23;20164;-80
2023/05/09 11:32:44;;;;;;;1.90;1.70;;;19.40;37.10;;;;;;6220810;23;20462;-80
2023/05/09 11:35:13;;;;;;;3.17;1.70;;;19.40;37.10;;;;;;6171273;23;20191;-80
2023/05/09 11:37:48;;;;;;;1.73;1.63;;;19.30;37.00;;;;;;6220298;23;20130;-80
2023/05/09 11:40:16;;;;;;;1.67;1.58;;;19.40;37.10;;;;;;6195436;23;20270;-80
2023/05/09 11:42:44;;;;;;;1.88;1.77;;;19.30;37.10;;;;;;6196151;23;20129;-79
2023/05/09 11:45:11;;;;;;;4.10;1.77;;;19.40;37.20;;;;;;6196749;23;20144;-80
2023/05/09 11:47:37;;;;;;;2.42;1.70;;;19.30;37.00;;;;;;6171403;23;20137;-80
2023/05/09 11:50:06;;;;;;;1.60;1.50;;;19.40;37.00;;;;;;6197127;23;20175;-80
2023/05/09 11:52:33;;;;;;;1.88;1.60;;;19.40;37.00;;;;;;6197605;23;20175;-80
2023/05/09 11:54:59;;;;;;;2.15;1.73;;;19.30;36.90;;;;;;6221090;23;20203;-80
2023/05/09 11:57:24;;;;;;;2.22;1.50;;;19.40;36.90;;;;;;6170092;23;20145;-80
2023/05/09 11:59:50;;;;;;;2.00;1.80;;;19.40;36.90;;;;;;6170254;23;20146;-80
2023/05/09 12:02:15;;;;;;;4.57;1.98;;;19.40;36.90;;;;;;6170356;23;20523;-80
2023/05/09 12:04:42;;;;;;;2.03;1.90;;;19.40;36.90;;;;;;6197320;23;20129;-80
2023/05/09 12:07:10;;;;;;;2.90;1.77;;;19.40;36.90;;;;;;6222340;23;20213;-79
2023/05/09 12:09:37;;;;;;;1.98;1.80;;;19.30;36.80;;;;;;6248602;23;20176;-80
2023/05/09 12:12:10;;;;;;;2.38;1.70;;;19.30;36.80;;;;;;6247787;23;20201;-80
2023/05/09 12:14:36;;;;;;;4.05;2.00;;;19.40;36.90;;;;;;6221444;23;20129;-80
2023/05/09 12:17:01;;;;;;;1.63;1.52;;;19.30;36.90;;;;;;6247930;23;20153;-80
2023/05/09 12:19:27;;;;;;;2.00;1.60;;;19.30;36.90;;;;;;6222368;23;20134;-79
2023/05/09 12:21:56;;;;;;;3.40;2.05;;;19.30;36.90;;;;;;6221871;23;20149;-80
2023/05/09 12:24:22;;;;;;;2.15;1.77;;;19.30;36.90;;;;;;6196821;23;20149;-80
2023/05/09 12:26:48;;;;;;;2.50;1.75;;;19.30;36.80;;;;;;6221753;23;20205;-80
2023/05/09 12:29:14;;;;;;;1.98;1.63;;;19.30;36.80;;;;;;6250230;23;20557;-80
2023/05/09 12:31:52;;;;;;;2.58;1.95;;;19.30;36.70;;;;;;6222426;23;20219;-80
2023/05/09 12:34:18;;;;;;;2.15;1.77;;;19.40;36.90;;;;;;6195392;23;20149;-80
2023/05/09 12:36:49;;;;;;;2.72;2.20;;;19.30;36.70;;;;;;6247813;23;20164;-80
2023/05/09 12:39:17;;;;;;;2.95;1.90;;;19.30;36.70;;;;;;6172265;23;20237;-80
2023/05/09 12:41:44;;;;;;;2.30;2.03;;;19.40;36.70;;;;;;6170145;23;20156;-80
2023/05/09 12:44:21;;;;;;;2.70;1.90;;;19.40;36.60;;;;;;6219996;23;20488;-80
2023/05/09 12:46:58;;;;;;;2.05;1.80;;;19.40;36.60;;;;;;6219842;23;20259;-80